sensor_id;sensor_type;location;lat;lon;timestamp;P1;P2;P0
50866;PMS7003;36839;51.946;21.002;2023-04-04T00:00:36;7.50;4.50;2.50
50866;PMS7003;36839;51.946;21.002;2023-04-04T00:03:14;5.50;5.50;3.00
50866;PMS7003;36839;51.946;21.002;2023-04-04T00:05:41;5.00;5.00;3.00
50866;PMS7003;36839;51.946;21.002;2023-04-04T00:08:09;7.00;6.00;3.00
50866;PMS7003;36839;51.946;21.002;2023-04-04T00:10:37;6.00;6.00;4.50
50866;PMS7003;36839;51.946;21.002;2023-04-04T00:13:04;7.50;6.00;3.00
50866;PMS7003;36839;51.946;21.002;2023-04-04T00:15:34;7.00;5.00;2.00
50866;PMS7003;36839;51.946;21.002;2023-04-04T00:18:09;9.50;6.00;3.00
50866;PMS7003;36839;51.946;21.002;2023-04-04T00:20:51;6.00;3.00;3.00
50866;PMS7003;36839;51.946;21.002;2023-04-04T00:23:30;6.00;5.00;3.00
50866;PMS7003;36839;51.946;21.002;2023-04-04T00:26:03;7.00;5.00;3.00
50866;PMS7003;36839;51.946;21.002;2023-04-04T00:28:42;5.00;5.00;3.00
50866;PMS7003;36839;51.946;21.002;2023-04-04T00:31:09;8.00;6.00;3.00
50866;PMS7003;36839;51.946;21.002;2023-04-04T00:33:35;10.00;7.50;6.00
50866;PMS7003;36839;51.946;21.002;2023-04-04T00:36:03;3.00;3.00;2.00
50866;PMS7003;36839;51.946;21.002;2023-04-04T00:38:31;6.00;5.00;3.00
50866;PMS7003;36839;51.946;21.002;2023-04-04T00:40:58;5.50;2.00;2.00
50866;PMS7003;36839;51.946;21.002;2023-04-04T00:43:26;7.00;5.00;3.00
50866;PMS7003;36839;51.946;21.002;2023-04-04T00:45:57;6.50;6.00;3.00
50866;PMS7003;36839;51.946;21.002;2023-04-04T00:48:24;6.00;3.00;3.00
50866;PMS7003;36839;51.946;21.002;2023-04-04T00:50:58;6.00;6.00;3.00
50866;PMS7003;36839;51.946;21.002;2023-04-04T00:53:24;5.50;4.00;3.00
50866;PMS7003;36839;51.946;21.002;2023-04-04T00:55:51;6.00;3.00;3.00
50866;PMS7003;36839;51.946;21.002;2023-04-04T00:58:20;6.00;3.00;3.00
50866;PMS7003;36839;51.946;21.002;2023-04-04T01:00:56;5.00;5.00;5.00
50866;PMS7003;36839;51.946;21.002;2023-04-04T01:03:25;6.00;6.00;5.00
50866;PMS7003;36839;51.946;21.002;2023-04-04T01:05:55;6.00;5.00;3.00
50866;PMS7003;36839;51.946;21.002;2023-04-04T01:08:24;6.00;5.00;3.00
50866;PMS7003;36839;51.946;21.002;2023-04-04T01:10:51;6.00;3.00;2.00
50866;PMS7003;36839;51.946;21.002;2023-04-04T01:13:19;8.00;5.00;3.00
50866;PMS7003;36839;51.946;21.002;2023-04-04T01:15:46;5.00;5.00;3.00
50866;PMS7003;36839;51.946;21.002;2023-04-04T01:18:24;5.67;5.67;4.33
50866;PMS7003;36839;51.946;21.002;2023-04-04T01:21:00;4.00;4.00;2.00
50866;PMS7003;36839;51.946;21.002;2023-04-04T01:23:42;5.00;5.00;3.00
50866;PMS7003;36839;51.946;21.002;2023-04-04T01:26:16;5.50;4.00;3.00
50866;PMS7003;36839;51.946;21.002;2023-04-04T01:28:45;8.00;5.00;3.00
50866;PMS7003;36839;51.946;21.002;2023-04-04T01:31:13;7.00;5.00;3.00
50866;PMS7003;36839;51.946;21.002;2023-04-04T01:33:44;6.00;5.00;2.00
50866;PMS7003;36839;51.946;21.002;2023-04-04T01:36:21;9.00;5.00;3.00
50866;PMS7003;36839;51.946;21.002;2023-04-04T01:39:17;3.00;3.00;2.00
50866;PMS7003;36839;51.946;21.002;2023-04-04T01:41:53;8.00;5.00;2.50
50866;PMS7003;36839;51.946;21.002;2023-04-04T01:44:23;9.00;5.33;5.00
50866;PMS7003;36839;51.946;21.002;2023-04-04T01:46:57;6.00;6.00;4.00
50866;PMS7003;36839;51.946;21.002;2023-04-04T01:49:24;9.00;6.00;5.00
50866;PMS7003;36839;51.946;21.002;2023-04-04T01:54:17;5.00;5.00;3.00
50866;PMS7003;36839;51.946;21.002;2023-04-04T01:56:59;5.00;2.50;1.50
50866;PMS7003;36839;51.946;21.002;2023-04-04T01:59:26;10.00;5.00;3.00
50866;PMS7003;36839;51.946;21.002;2023-04-04T02:01:53;3.00;3.00;3.00
50866;PMS7003;36839;51.946;21.002;2023-04-04T02:04:20;5.00;5.00;2.00
50866;PMS7003;36839;51.946;21.002;2023-04-04T02:06:47;6.00;6.00;3.00
50866;PMS7003;36839;51.946;21.002;2023-04-04T02:09:14;6.67;2.67;2.00
50866;PMS7003;36839;51.946;21.002;2023-04-04T02:11:44;10.00;5.00;3.00
50866;PMS7003;36839;51.946;21.002;2023-04-04T02:14:10;4.50;4.50;3.50
50866;PMS7003;36839;51.946;21.002;2023-04-04T02:16:38;2.50;2.50;1.50
50866;PMS7003;36839;51.946;21.002;2023-04-04T02:19:05;6.50;5.50;5.00
50866;PMS7003;36839;51.946;21.002;2023-04-04T02:21:32;4.00;4.00;2.00
50866;PMS7003;36839;51.946;21.002;2023-04-04T02:23:59;6.00;4.00;3.00
50866;PMS7003;36839;51.946;21.002;2023-04-04T02:26:25;5.50;3.50;3.50
50866;PMS7003;36839;51.946;21.002;2023-04-04T02:28:55;5.00;5.00;3.00
50866;PMS7003;36839;51.946;21.002;2023-04-04T02:33:52;5.50;3.50;2.00
50866;PMS7003;36839;51.946;21.002;2023-04-04T02:36:20;4.50;4.50;2.50
50866;PMS7003;36839;51.946;21.002;2023-04-04T02:38:49;4.00;3.50;1.50
50866;PMS7003;36839;51.946;21.002;2023-04-04T02:41:18;3.00;3.00;2.00
50866;PMS7003;36839;51.946;21.002;2023-04-04T02:43:45;3.50;3.50;2.00
50866;PMS7003;36839;51.946;21.002;2023-04-04T02:46:13;3.00;3.00;2.00
50866;PMS7003;36839;51.946;21.002;2023-04-04T02:48:41;7.00;7.00;5.00
50866;PMS7003;36839;51.946;21.002;2023-04-04T02:51:08;3.50;3.50;3.50
50866;PMS7003;36839;51.946;21.002;2023-04-04T02:53:35;4.00;4.00;2.00
50866;PMS7003;36839;51.946;21.002;2023-04-04T02:56:02;9.00;5.00;4.00
50866;PMS7003;36839;51.946;21.002;2023-04-04T02:58:32;8.00;5.00;3.00
50866;PMS7003;36839;51.946;21.002;2023-04-04T03:01:01;5.50;5.00;4.00
50866;PMS7003;36839;51.946;21.002;2023-04-04T03:03:28;2.00;2.00;2.00
50866;PMS7003;36839;51.946;21.002;2023-04-04T03:05:54;5.00;5.00;4.00
50866;PMS7003;36839;51.946;21.002;2023-04-04T03:08:21;6.00;4.00;2.00
50866;PMS7003;36839;51.946;21.002;2023-04-04T03:10:49;8.50;6.00;3.00
50866;PMS7003;36839;51.946;21.002;2023-04-04T03:13:16;4.50;4.50;3.00
50866;PMS7003;36839;51.946;21.002;2023-04-04T03:15:46;6.00;6.00;4.00
50866;PMS7003;36839;51.946;21.002;2023-04-04T03:18:14;5.00;5.00;4.00
50866;PMS7003;36839;51.946;21.002;2023-04-04T03:20:41;9.00;5.00;5.00
50866;PMS7003;36839;51.946;21.002;2023-04-04T03:25:34;31.00;27.00;20.00
50866;PMS7003;36839;51.946;21.002;2023-04-04T03:28:10;155.00;139.00;81.00
50866;PMS7003;36839;51.946;21.002;2023-04-04T03:30:37;91.00;70.00;46.00
50866;PMS7003;36839;51.946;21.002;2023-04-04T03:33:06;23.50;20.50;15.50
50866;PMS7003;36839;51.946;21.002;2023-04-04T03:35:37;41.00;31.00;21.00
50866;PMS7003;36839;51.946;21.002;2023-04-04T03:38:06;13.00;12.67;9.00
50866;PMS7003;36839;51.946;21.002;2023-04-04T03:40:35;13.50;12.50;8.50
50866;PMS7003;36839;51.946;21.002;2023-04-04T03:43:07;9.00;9.00;9.00
50866;PMS7003;36839;51.946;21.002;2023-04-04T03:45:34;16.50;16.50;13.50
50866;PMS7003;36839;51.946;21.002;2023-04-04T03:48:02;21.00;16.00;12.00
50866;PMS7003;36839;51.946;21.002;2023-04-04T03:50:29;12.33;12.33;8.33
50866;PMS7003;36839;51.946;21.002;2023-04-04T03:52:56;12.00;9.00;6.00
50866;PMS7003;36839;51.946;21.002;2023-04-04T03:55:25;23.00;18.00;13.00
50866;PMS7003;36839;51.946;21.002;2023-04-04T03:57:52;16.50;11.50;7.50
50866;PMS7003;36839;51.946;21.002;2023-04-04T04:00:21;25.00;24.00;17.00
50866;PMS7003;36839;51.946;21.002;2023-04-04T04:02:48;33.00;24.00;19.00
50866;PMS7003;36839;51.946;21.002;2023-04-04T04:05:19;31.50;31.50;22.00
50866;PMS7003;36839;51.946;21.002;2023-04-04T04:07:46;23.50;23.00;14.00
50866;PMS7003;36839;51.946;21.002;2023-04-04T04:10:12;43.50;29.50;20.00
50866;PMS7003;36839;51.946;21.002;2023-04-04T04:12:43;37.00;25.00;16.00
50866;PMS7003;36839;51.946;21.002;2023-04-04T04:15:13;21.50;17.50;12.00
50866;PMS7003;36839;51.946;21.002;2023-04-04T04:17:39;51.00;40.00;26.00
50866;PMS7003;36839;51.946;21.002;2023-04-04T04:20:09;48.50;33.00;21.00
50866;PMS7003;36839;51.946;21.002;2023-04-04T04:22:36;47.00;35.00;20.00
50866;PMS7003;36839;51.946;21.002;2023-04-04T04:25:03;28.00;17.00;9.00
50866;PMS7003;36839;51.946;21.002;2023-04-04T04:27:30;31.50;22.50;14.50
50866;PMS7003;36839;51.946;21.002;2023-04-04T04:29:56;24.33;24.00;13.00
50866;PMS7003;36839;51.946;21.002;2023-04-04T04:32:23;26.00;16.00;9.00
50866;PMS7003;36839;51.946;21.002;2023-04-04T04:34:51;13.50;9.00;5.50
50866;PMS7003;36839;51.946;21.002;2023-04-04T04:37:27;22.00;16.50;9.50
50866;PMS7003;36839;51.946;21.002;2023-04-04T04:39:54;18.00;11.00;5.00
50866;PMS7003;36839;51.946;21.002;2023-04-04T04:42:20;25.00;23.00;15.00
50866;PMS7003;36839;51.946;21.002;2023-04-04T04:44:47;15.50;11.00;8.50
50866;PMS7003;36839;51.946;21.002;2023-04-04T04:47:14;42.00;26.00;18.50
50866;PMS7003;36839;51.946;21.002;2023-04-04T04:49:41;23.00;22.00;13.00
50866;PMS7003;36839;51.946;21.002;2023-04-04T04:52:09;20.00;17.00;10.00
50866;PMS7003;36839;51.946;21.002;2023-04-04T04:54:37;9.00;8.00;7.00
50866;PMS7003;36839;51.946;21.002;2023-04-04T04:57:04;20.50;16.00;12.50
50866;PMS7003;36839;51.946;21.002;2023-04-04T04:59:32;28.00;16.00;12.00
50866;PMS7003;36839;51.946;21.002;2023-04-04T05:02:02;8.00;5.00;4.00
50866;PMS7003;36839;51.946;21.002;2023-04-04T05:04:31;23.00;16.00;10.00
50866;PMS7003;36839;51.946;21.002;2023-04-04T05:07:00;16.50;16.00;9.00
50866;PMS7003;36839;51.946;21.002;2023-04-04T05:09:36;16.00;12.00;8.00
50866;PMS7003;36839;51.946;21.002;2023-04-04T05:12:12;19.00;16.00;11.00
50866;PMS7003;36839;51.946;21.002;2023-04-04T05:14:38;24.00;21.00;13.00
50866;PMS7003;36839;51.946;21.002;2023-04-04T05:17:04;16.50;11.00;9.00
50866;PMS7003;36839;51.946;21.002;2023-04-04T05:19:31;14.00;11.00;9.00
50866;PMS7003;36839;51.946;21.002;2023-04-04T05:21:58;19.00;16.00;12.00
50866;PMS7003;36839;51.946;21.002;2023-04-04T05:24:24;5.00;5.00;2.00
50866;PMS7003;36839;51.946;21.002;2023-04-04T05:26:50;13.00;8.50;5.50
50866;PMS7003;36839;51.946;21.002;2023-04-04T05:29:17;13.50;12.00;9.00
50866;PMS7003;36839;51.946;21.002;2023-04-04T05:31:45;15.00;9.00;6.00
50866;PMS7003;36839;51.946;21.002;2023-04-04T05:34:13;10.00;10.00;8.00
50866;PMS7003;36839;51.946;21.002;2023-04-04T05:36:43;10.00;6.00;5.00
50866;PMS7003;36839;51.946;21.002;2023-04-04T05:39:10;11.00;7.00;5.00
50866;PMS7003;36839;51.946;21.002;2023-04-04T05:41:37;9.00;9.00;6.00
50866;PMS7003;36839;51.946;21.002;2023-04-04T05:44:04;2.00;2.00;1.00
50866;PMS7003;36839;51.946;21.002;2023-04-04T05:46:32;8.50;7.00;6.00
50866;PMS7003;36839;51.946;21.002;2023-04-04T05:48:59;9.50;5.00;3.00
50866;PMS7003;36839;51.946;21.002;2023-04-04T05:51:25;6.00;6.00;5.00
50866;PMS7003;36839;51.946;21.002;2023-04-04T05:54:07;9.00;9.00;6.00
50866;PMS7003;36839;51.946;21.002;2023-04-04T05:56:33;9.00;7.00;6.00
50866;PMS7003;36839;51.946;21.002;2023-04-04T05:59:01;6.50;6.00;6.00
50866;PMS7003;36839;51.946;21.002;2023-04-04T06:01:28;14.00;7.00;6.00
50866;PMS7003;36839;51.946;21.002;2023-04-04T06:03:54;5.00;4.50;2.00
50866;PMS7003;36839;51.946;21.002;2023-04-04T06:06:25;5.00;5.00;2.00
50866;PMS7003;36839;51.946;21.002;2023-04-04T06:08:52;7.50;4.50;3.50
50866;PMS7003;36839;51.946;21.002;2023-04-04T06:11:20;9.50;8.50;5.00
50866;PMS7003;36839;51.946;21.002;2023-04-04T06:13:48;11.00;6.50;6.00
50866;PMS7003;36839;51.946;21.002;2023-04-04T06:16:15;3.00;3.00;3.00
50866;PMS7003;36839;51.946;21.002;2023-04-04T06:18:42;6.00;6.00;5.00
50866;PMS7003;36839;51.946;21.002;2023-04-04T06:21:08;12.00;7.00;6.00
50866;PMS7003;36839;51.946;21.002;2023-04-04T06:23:36;10.00;9.00;6.00
50866;PMS7003;36839;51.946;21.002;2023-04-04T06:26:02;7.00;5.00;5.00
50866;PMS7003;36839;51.946;21.002;2023-04-04T06:28:29;8.00;8.00;6.00
50866;PMS7003;36839;51.946;21.002;2023-04-04T06:30:58;5.50;5.50;3.00
50866;PMS7003;36839;51.946;21.002;2023-04-04T06:33:27;9.00;9.00;6.00
50866;PMS7003;36839;51.946;21.002;2023-04-04T06:35:54;18.00;10.00;3.00
50866;PMS7003;36839;51.946;21.002;2023-04-04T06:38:21;7.00;7.00;6.00
50866;PMS7003;36839;51.946;21.002;2023-04-04T06:40:47;8.00;8.00;7.00
50866;PMS7003;36839;51.946;21.002;2023-04-04T06:43:18;12.50;10.00;5.50
50866;PMS7003;36839;51.946;21.002;2023-04-04T06:46:00;11.00;9.00;7.00
50866;PMS7003;36839;51.946;21.002;2023-04-04T06:48:26;18.50;8.00;7.00
50866;PMS7003;36839;51.946;21.002;2023-04-04T06:50:53;13.00;11.00;7.00
50866;PMS7003;36839;51.946;21.002;2023-04-04T06:53:19;11.00;11.00;7.00
50866;PMS7003;36839;51.946;21.002;2023-04-04T06:55:49;11.00;9.50;7.00
50866;PMS7003;36839;51.946;21.002;2023-04-04T06:58:17;12.00;9.00;6.00
50866;PMS7003;36839;51.946;21.002;2023-04-04T07:00:44;7.50;6.00;5.50
50866;PMS7003;36839;51.946;21.002;2023-04-04T07:03:11;7.00;7.00;6.00
50866;PMS7003;36839;51.946;21.002;2023-04-04T07:05:38;8.50;7.00;5.50
50866;PMS7003;36839;51.946;21.002;2023-04-04T07:08:05;11.67;10.33;6.33
50866;PMS7003;36839;51.946;21.002;2023-04-04T07:10:32;12.00;11.00;8.00
50866;PMS7003;36839;51.946;21.002;2023-04-04T07:13:00;13.00;9.00;7.00
50866;PMS7003;36839;51.946;21.002;2023-04-04T07:15:27;13.00;9.50;7.00
50866;PMS7003;36839;51.946;21.002;2023-04-04T07:17:58;8.00;8.00;7.00
50866;PMS7003;36839;51.946;21.002;2023-04-04T07:20:25;10.00;8.00;6.00
50866;PMS7003;36839;51.946;21.002;2023-04-04T07:22:54;9.00;9.00;7.00
50866;PMS7003;36839;51.946;21.002;2023-04-04T07:25:21;13.00;9.00;7.50
50866;PMS7003;36839;51.946;21.002;2023-04-04T07:27:47;15.50;10.50;8.00
50866;PMS7003;36839;51.946;21.002;2023-04-04T07:30:18;21.00;12.00;8.00
50866;PMS7003;36839;51.946;21.002;2023-04-04T07:32:44;9.00;9.00;4.00
50866;PMS7003;36839;51.946;21.002;2023-04-04T07:35:12;17.50;13.00;8.50
50866;PMS7003;36839;51.946;21.002;2023-04-04T07:37:39;8.00;8.00;7.00
50866;PMS7003;36839;51.946;21.002;2023-04-04T07:40:07;16.00;12.00;9.00
50866;PMS7003;36839;51.946;21.002;2023-04-04T07:42:42;13.00;13.00;9.00
50866;PMS7003;36839;51.946;21.002;2023-04-04T07:45:19;9.00;9.00;7.00
50866;PMS7003;36839;51.946;21.002;2023-04-04T07:47:47;9.00;9.00;7.00
50866;PMS7003;36839;51.946;21.002;2023-04-04T07:50:15;13.00;13.00;9.00
50866;PMS7003;36839;51.946;21.002;2023-04-04T07:52:48;9.00;9.00;8.00
50866;PMS7003;36839;51.946;21.002;2023-04-04T07:55:17;14.00;11.00;8.00
50866;PMS7003;36839;51.946;21.002;2023-04-04T07:57:45;8.00;8.00;7.00
50866;PMS7003;36839;51.946;21.002;2023-04-04T08:00:13;10.00;10.00;8.00
50866;PMS7003;36839;51.946;21.002;2023-04-04T08:02:42;12.00;11.00;8.00
50866;PMS7003;36839;51.946;21.002;2023-04-04T08:05:12;13.67;10.00;8.00
50866;PMS7003;36839;51.946;21.002;2023-04-04T08:07:40;13.00;12.00;9.00
50866;PMS7003;36839;51.946;21.002;2023-04-04T08:10:14;10.00;10.00;8.00
50866;PMS7003;36839;51.946;21.002;2023-04-04T08:12:47;15.00;12.00;8.00
50866;PMS7003;36839;51.946;21.002;2023-04-04T08:15:18;11.00;11.00;9.00
50866;PMS7003;36839;51.946;21.002;2023-04-04T08:17:44;10.50;10.00;8.00
50866;PMS7003;36839;51.946;21.002;2023-04-04T08:20:12;11.00;10.00;8.00
50866;PMS7003;36839;51.946;21.002;2023-04-04T08:22:42;12.00;12.00;8.00
50866;PMS7003;36839;51.946;21.002;2023-04-04T08:25:09;9.00;6.00;5.00
50866;PMS7003;36839;51.946;21.002;2023-04-04T08:27:39;11.00;9.50;8.00
50866;PMS7003;36839;51.946;21.002;2023-04-04T08:30:09;10.00;8.50;8.00
50866;PMS7003;36839;51.946;21.002;2023-04-04T08:32:39;9.00;9.00;6.00
50866;PMS7003;36839;51.946;21.002;2023-04-04T08:35:09;10.00;9.00;7.00
50866;PMS7003;36839;51.946;21.002;2023-04-04T08:37:45;9.00;9.00;6.50
50866;PMS7003;36839;51.946;21.002;2023-04-04T08:40:12;12.00;10.00;7.00
50866;PMS7003;36839;51.946;21.002;2023-04-04T08:42:40;14.00;11.00;7.00
50866;PMS7003;36839;51.946;21.002;2023-04-04T08:45:11;12.00;9.50;7.50
50866;PMS7003;36839;51.946;21.002;2023-04-04T08:47:44;10.50;9.00;6.00
50866;PMS7003;36839;51.946;21.002;2023-04-04T08:50:14;10.00;9.00;6.00
50866;PMS7003;36839;51.946;21.002;2023-04-04T08:52:46;9.50;6.00;5.00
50866;PMS7003;36839;51.946;21.002;2023-04-04T09:02:42;9.50;6.50;5.00
50866;PMS7003;36839;51.946;21.002;2023-04-04T09:05:15;5.50;5.50;4.00
50866;PMS7003;36839;51.946;21.002;2023-04-04T09:07:46;4.00;4.00;3.00
50866;PMS7003;36839;51.946;21.002;2023-04-04T09:10:18;6.00;6.00;5.00
50866;PMS7003;36839;51.946;21.002;2023-04-04T09:13:00;6.00;5.00;5.00
50866;PMS7003;36839;51.946;21.002;2023-04-04T09:15:29;7.00;6.00;5.00
50866;PMS7003;36839;51.946;21.002;2023-04-04T09:17:57;9.00;7.00;6.00
50866;PMS7003;36839;51.946;21.002;2023-04-04T09:23:20;7.00;7.00;5.00
50866;PMS7003;36839;51.946;21.002;2023-04-04T09:25:54;8.00;8.00;6.00
50866;PMS7003;36839;51.946;21.002;2023-04-04T09:28:22;7.00;6.00;5.00
50866;PMS7003;36839;51.946;21.002;2023-04-04T09:31:00;8.00;8.00;6.00
50866;PMS7003;36839;51.946;21.002;2023-04-04T09:33:30;10.00;6.00;4.00
50866;PMS7003;36839;51.946;21.002;2023-04-04T09:36:03;7.50;6.00;4.50
50866;PMS7003;36839;51.946;21.002;2023-04-04T09:38:42;8.00;7.00;5.00
50866;PMS7003;36839;51.946;21.002;2023-04-04T09:41:16;6.00;5.00;4.00
50866;PMS7003;36839;51.946;21.002;2023-04-04T09:43:44;6.50;5.00;4.00
50866;PMS7003;36839;51.946;21.002;2023-04-04T09:46:11;5.50;4.00;3.50
50866;PMS7003;36839;51.946;21.002;2023-04-04T09:48:41;6.00;6.00;5.00
50866;PMS7003;36839;51.946;21.002;2023-04-04T09:51:20;10.00;7.00;6.00
50866;PMS7003;36839;51.946;21.002;2023-04-04T09:53:46;7.00;7.00;5.50
50866;PMS7003;36839;51.946;21.002;2023-04-04T09:56:13;6.50;4.50;4.00
50866;PMS7003;36839;51.946;21.002;2023-04-04T09:58:40;7.50;6.50;6.00
50866;PMS7003;36839;51.946;21.002;2023-04-04T10:01:14;6.50;4.00;3.00
50866;PMS7003;36839;51.946;21.002;2023-04-04T10:03:42;5.50;5.50;4.00
50866;PMS7003;36839;51.946;21.002;2023-04-04T10:06:21;6.00;5.00;5.00
50866;PMS7003;36839;51.946;21.002;2023-04-04T10:08:52;6.00;5.00;4.00
50866;PMS7003;36839;51.946;21.002;2023-04-04T10:11:31;6.00;5.00;4.00
50866;PMS7003;36839;51.946;21.002;2023-04-04T10:14:07;6.00;6.00;4.00
50866;PMS7003;36839;51.946;21.002;2023-04-04T10:16:35;3.00;3.00;3.00
50866;PMS7003;36839;51.946;21.002;2023-04-04T10:19:05;6.00;5.00;4.00
50866;PMS7003;36839;51.946;21.002;2023-04-04T10:21:35;6.00;5.00;4.00
50866;PMS7003;36839;51.946;21.002;2023-04-04T10:24:03;5.00;4.00;4.00
50866;PMS7003;36839;51.946;21.002;2023-04-04T10:26:34;6.00;5.00;4.00
50866;PMS7003;36839;51.946;21.002;2023-04-04T10:29:01;4.00;4.00;3.00
50866;PMS7003;36839;51.946;21.002;2023-04-04T10:31:30;3.00;3.00;3.00
50866;PMS7003;36839;51.946;21.002;2023-04-04T10:42:13;6.00;6.00;4.00
50866;PMS7003;36839;51.946;21.002;2023-04-04T10:44:42;7.50;6.00;4.50
50866;PMS7003;36839;51.946;21.002;2023-04-04T10:47:20;4.00;4.00;3.00
50866;PMS7003;36839;51.946;21.002;2023-04-04T10:49:49;5.00;5.00;4.00
50866;PMS7003;36839;51.946;21.002;2023-04-04T10:52:17;12.50;7.00;5.00
50866;PMS7003;36839;51.946;21.002;2023-04-04T10:54:48;4.00;4.00;4.00
50866;PMS7003;36839;51.946;21.002;2023-04-04T10:57:18;6.00;6.00;5.00
50866;PMS7003;36839;51.946;21.002;2023-04-04T11:00:01;4.00;4.00;3.00
50866;PMS7003;36839;51.946;21.002;2023-04-04T11:05:25;5.00;5.00;4.00
50866;PMS7003;36839;51.946;21.002;2023-04-04T11:08:02;6.50;4.50;3.50
50866;PMS7003;36839;51.946;21.002;2023-04-04T11:10:36;6.00;6.00;5.00
50866;PMS7003;36839;51.946;21.002;2023-04-04T11:21:27;8.00;5.00;4.00
50866;PMS7003;36839;51.946;21.002;2023-04-04T11:26:44;9.00;6.00;5.00
50866;PMS7003;36839;51.946;21.002;2023-04-04T11:29:18;8.00;6.00;6.00
50866;PMS7003;36839;51.946;21.002;2023-04-04T11:31:49;6.00;6.00;4.00
50866;PMS7003;36839;51.946;21.002;2023-04-04T11:34:30;7.00;6.00;4.00
50866;PMS7003;36839;51.946;21.002;2023-04-04T11:39:47;7.00;5.00;5.00
50866;PMS7003;36839;51.946;21.002;2023-04-04T11:42:24;5.00;4.00;3.00
50866;PMS7003;36839;51.946;21.002;2023-04-04T11:45:04;6.00;4.00;3.00
50866;PMS7003;36839;51.946;21.002;2023-04-04T11:47:34;6.00;6.00;5.00
50866;PMS7003;36839;51.946;21.002;2023-04-04T11:50:06;5.00;5.00;4.50
50866;PMS7003;36839;51.946;21.002;2023-04-04T11:52:35;5.00;5.00;4.00
50866;PMS7003;36839;51.946;21.002;2023-04-04T11:55:12;5.00;4.00;3.00
50866;PMS7003;36839;51.946;21.002;2023-04-04T11:58:19;4.50;4.00;3.00
50866;PMS7003;36839;51.946;21.002;2023-04-04T12:00:49;6.00;6.00;5.00
50866;PMS7003;36839;51.946;21.002;2023-04-04T12:03:15;5.00;5.00;4.00
50866;PMS7003;36839;51.946;21.002;2023-04-04T12:05:44;5.00;4.00;4.00
50866;PMS7003;36839;51.946;21.002;2023-04-04T12:08:11;5.50;5.50;4.00
50866;PMS7003;36839;51.946;21.002;2023-04-04T12:10:43;5.00;4.00;4.00
50866;PMS7003;36839;51.946;21.002;2023-04-04T12:13:10;5.00;4.00;3.00
50866;PMS7003;36839;51.946;21.002;2023-04-04T12:15:37;3.00;3.00;3.00
50866;PMS7003;36839;51.946;21.002;2023-04-04T12:18:05;3.00;3.00;3.00
50866;PMS7003;36839;51.946;21.002;2023-04-04T12:20:38;4.00;3.00;3.00
50866;PMS7003;36839;51.946;21.002;2023-04-04T12:23:12;4.00;4.00;3.00
50866;PMS7003;36839;51.946;21.002;2023-04-04T12:25:40;5.00;3.00;2.50
50866;PMS7003;36839;51.946;21.002;2023-04-04T12:28:18;4.00;3.00;2.50
50866;PMS7003;36839;51.946;21.002;2023-04-04T12:30:47;3.00;3.00;3.00
50866;PMS7003;36839;51.946;21.002;2023-04-04T12:33:14;3.00;3.00;3.00
50866;PMS7003;36839;51.946;21.002;2023-04-04T12:35:40;2.00;2.00;2.00
50866;PMS7003;36839;51.946;21.002;2023-04-04T12:40:44;5.00;3.00;2.00
50866;PMS7003;36839;51.946;21.002;2023-04-04T12:43:15;1.00;1.00;1.00
50866;PMS7003;36839;51.946;21.002;2023-04-04T12:45:46;3.00;3.00;2.50
50866;PMS7003;36839;51.946;21.002;2023-04-04T12:48:17;6.00;4.50;3.50
50866;PMS7003;36839;51.946;21.002;2023-04-04T12:53:54;4.00;4.00;3.00
50866;PMS7003;36839;51.946;21.002;2023-04-04T12:56:28;6.00;4.00;3.50
50866;PMS7003;36839;51.946;21.002;2023-04-04T12:59:01;9.00;3.00;3.00
50866;PMS7003;36839;51.946;21.002;2023-04-04T13:01:33;53.00;41.50;30.50
50866;PMS7003;36839;51.946;21.002;2023-04-04T13:04:06;6.00;5.00;4.00
50866;PMS7003;36839;51.946;21.002;2023-04-04T13:06:35;9.00;6.00;5.00
50866;PMS7003;36839;51.946;21.002;2023-04-04T13:09:02;5.00;5.00;5.00
50866;PMS7003;36839;51.946;21.002;2023-04-04T13:17:48;4.00;4.00;2.00
50866;PMS7003;36839;51.946;21.002;2023-04-04T13:20:18;5.50;4.00;3.50
50866;PMS7003;36839;51.946;21.002;2023-04-04T13:22:49;9.00;4.00;3.00
50866;PMS7003;36839;51.946;21.002;2023-04-04T13:25:16;9.00;5.00;4.00
50866;PMS7003;36839;51.946;21.002;2023-04-04T13:27:43;4.50;4.50;4.00
50866;PMS7003;36839;51.946;21.002;2023-04-04T13:30:23;4.00;4.00;3.00
50866;PMS7003;36839;51.946;21.002;2023-04-04T13:32:56;6.50;5.50;4.00
50866;PMS7003;36839;51.946;21.002;2023-04-04T13:35:23;6.00;6.00;5.00
50866;PMS7003;36839;51.946;21.002;2023-04-04T13:37:51;10.00;9.00;6.00
50866;PMS7003;36839;51.946;21.002;2023-04-04T13:40:18;7.00;5.00;4.00
50866;PMS7003;36839;51.946;21.002;2023-04-04T13:42:45;12.50;8.00;6.00
50866;PMS7003;36839;51.946;21.002;2023-04-04T13:45:13;31.00;31.00;22.00
50866;PMS7003;36839;51.946;21.002;2023-04-04T13:47:40;45.00;36.00;23.00
50866;PMS7003;36839;51.946;21.002;2023-04-04T13:50:07;24.00;20.00;16.00
50866;PMS7003;36839;51.946;21.002;2023-04-04T13:52:33;36.33;32.67;23.33
50866;PMS7003;36839;51.946;21.002;2023-04-04T13:55:03;28.00;24.00;17.00
50866;PMS7003;36839;51.946;21.002;2023-04-04T13:57:32;28.67;21.33;18.33
50866;PMS7003;36839;51.946;21.002;2023-04-04T14:00:02;12.00;9.00;7.00
50866;PMS7003;36839;51.946;21.002;2023-04-04T14:02:30;13.00;10.00;6.00
50866;PMS7003;36839;51.946;21.002;2023-04-04T14:04:57;15.67;12.33;9.00
50866;PMS7003;36839;51.946;21.002;2023-04-04T14:07:24;46.00;38.00;24.00
50866;PMS7003;36839;51.946;21.002;2023-04-04T14:09:50;10.00;9.00;7.00
50866;PMS7003;36839;51.946;21.002;2023-04-04T14:12:17;37.00;31.00;18.00
50866;PMS7003;36839;51.946;21.002;2023-04-04T14:14:43;46.00;34.50;21.50
50866;PMS7003;36839;51.946;21.002;2023-04-04T14:17:13;57.00;43.50;27.00
50866;PMS7003;36839;51.946;21.002;2023-04-04T14:19:42;29.00;27.00;18.00
50866;PMS7003;36839;51.946;21.002;2023-04-04T14:22:17;54.00;40.00;26.00
50866;PMS7003;36839;51.946;21.002;2023-04-04T14:24:46;36.50;31.50;20.50
50866;PMS7003;36839;51.946;21.002;2023-04-04T14:27:14;32.00;25.00;14.00
50866;PMS7003;36839;51.946;21.002;2023-04-04T14:29:45;7.50;6.50;5.00
50866;PMS7003;36839;51.946;21.002;2023-04-04T14:32:17;41.50;35.00;22.00
50866;PMS7003;36839;51.946;21.002;2023-04-04T14:34:44;49.00;36.00;23.00
50866;PMS7003;36839;51.946;21.002;2023-04-04T14:37:10;39.50;34.50;22.50
50866;PMS7003;36839;51.946;21.002;2023-04-04T14:39:38;17.00;14.00;10.00
50866;PMS7003;36839;51.946;21.002;2023-04-04T14:42:05;12.00;9.50;6.50
50866;PMS7003;36839;51.946;21.002;2023-04-04T14:44:31;4.00;4.00;4.00
50866;PMS7003;36839;51.946;21.002;2023-04-04T14:47:11;56.00;45.00;27.00
50866;PMS7003;36839;51.946;21.002;2023-04-04T14:49:40;21.00;17.50;13.00
50866;PMS7003;36839;51.946;21.002;2023-04-04T14:52:22;51.00;39.00;24.00
50866;PMS7003;36839;51.946;21.002;2023-04-04T14:54:49;25.00;22.00;17.50
50866;PMS7003;36839;51.946;21.002;2023-04-04T14:57:15;33.50;31.00;21.50
50866;PMS7003;36839;51.946;21.002;2023-04-04T14:59:42;22.50;17.00;14.00
50866;PMS7003;36839;51.946;21.002;2023-04-04T15:02:09;20.00;18.00;14.00
50866;PMS7003;36839;51.946;21.002;2023-04-04T15:04:37;11.00;9.67;7.33
50866;PMS7003;36839;51.946;21.002;2023-04-04T15:07:06;11.50;9.50;7.00